sensor_id;sensor_type;location;lat;lon;timestamp;P1;durP1;ratioP1;P2;durP2;ratioP2
37151;SDS011;23046;50.112;8.952;2023-07-22T00:00:00;0.90;;;0.90;;
37151;SDS011;23046;50.112;8.952;2023-07-22T00:00:10;0.80;;;0.80;;
37151;SDS011;23046;50.112;8.952;2023-07-22T00:00:24;0.80;;;0.80;;
37151;SDS011;23046;50.112;8.952;2023-07-22T00:00:36;0.80;;;0.80;;
37151;SDS011;23046;50.112;8.952;2023-07-22T00:00:46;0.97;;;0.70;;
37151;SDS011;23046;50.112;8.952;2023-07-22T00:00:56;1.15;;;0.80;;
37151;SDS011;23046;50.112;8.952;2023-07-22T00:01:06;0.90;;;0.70;;
37151;SDS011;23046;50.112;8.952;2023-07-22T00:01:16;0.80;;;0.80;;
37151;SDS011;23046;50.112;8.952;2023-07-22T00:01:26;0.80;;;0.80;;
37151;SDS011;23046;50.112;8.952;2023-07-22T00:01:37;0.90;;;0.90;;
37151;SDS011;23046;50.112;8.952;2023-07-22T00:01:47;1.00;;;0.90;;
37151;SDS011;23046;50.112;8.952;2023-07-22T00:01:57;1.20;;;1.00;;
37151;SDS011;23046;50.112;8.952;2023-07-22T00:02:08;1.50;;;1.00;;
37151;SDS011;23046;50.112;8.952;2023-07-22T00:02:18;1.50;;;1.10;;
37151;SDS011;23046;50.112;8.952;2023-07-22T00:02:28;2.25;;;1.10;;
37151;SDS011;23046;50.112;8.952;2023-07-22T00:02:41;1.98;;;1.00;;
37151;SDS011;23046;50.112;8.952;2023-07-22T00:02:51;2.30;;;0.97;;
37151;SDS011;23046;50.112;8.952;2023-07-22T00:03:01;1.50;;;0.90;;
37151;SDS011;23046;50.112;8.952;2023-07-22T00:03:11;1.60;;;0.90;;
37151;SDS011;23046;50.112;8.952;2023-07-22T00:03:21;0.83;;;0.80;;
37151;SDS011;23046;50.112;8.952;2023-07-22T00:03:33;1.00;;;0.80;;
37151;SDS011;23046;50.112;8.952;2023-07-22T00:03:43;1.13;;;0.90;;
37151;SDS011;23046;50.112;8.952;2023-07-22T00:03:53;1.05;;;0.90;;
37151;SDS011;23046;50.112;8.952;2023-07-22T00:04:04;0.80;;;0.80;;
37151;SDS011;23046;50.112;8.952;2023-07-22T00:04:14;0.80;;;0.77;;
37151;SDS011;23046;50.112;8.952;2023-07-22T00:04:25;0.80;;;0.80;;
37151;SDS011;23046;50.112;8.952;2023-07-22T00:04:35;1.17;;;0.90;;
37151;SDS011;23046;50.112;8.952;2023-07-22T00:04:45;1.10;;;1.00;;
37151;SDS011;23046;50.112;8.952;2023-07-22T00:04:55;1.20;;;1.00;;
37151;SDS011;23046;50.112;8.952;2023-07-22T00:05:06;0.87;;;0.87;;
37151;SDS011;23046;50.112;8.952;2023-07-22T00:05:16;0.73;;;0.73;;
37151;SDS011;23046;50.112;8.952;2023-07-22T00:05:32;0.80;;;0.80;;
37151;SDS011;23046;50.112;8.952;2023-07-22T00:05:42;0.87;;;0.87;;
37151;SDS011;23046;50.112;8.952;2023-07-22T00:06:03;0.90;;;0.90;;
37151;SDS011;23046;50.112;8.952;2023-07-22T00:06:15;1.13;;;0.88;;
37151;SDS011;23046;50.112;8.952;2023-07-22T00:06:25;1.20;;;1.05;;
37151;SDS011;23046;50.112;8.952;2023-07-22T00:06:36;1.13;;;1.03;;
37151;SDS011;23046;50.112;8.952;2023-07-22T00:06:46;1.23;;;1.13;;
37151;SDS011;23046;50.112;8.952;2023-07-22T00:06:56;1.00;;;0.90;;
37151;SDS011;23046;50.112;8.952;2023-07-22T00:07:06;1.03;;;0.93;;
37151;SDS011;23046;50.112;8.952;2023-07-22T00:07:16;1.63;;;0.90;;
37151;SDS011;23046;50.112;8.952;2023-07-22T00:07:27;2.10;;;0.87;;
37151;SDS011;23046;50.112;8.952;2023-07-22T00:07:37;2.00;;;0.80;;
37151;SDS011;23046;50.112;8.952;2023-07-22T00:07:47;0.90;;;0.70;;
37151;SDS011;23046;50.112;8.952;2023-07-22T00:07:57;0.70;;;0.70;;
37151;SDS011;23046;50.112;8.952;2023-07-22T00:08:08;0.80;;;0.80;;
37151;SDS011;23046;50.112;8.952;2023-07-22T00:08:18;1.00;;;0.90;;
37151;SDS011;23046;50.112;8.952;2023-07-22T00:08:28;1.53;;;0.90;;
37151;SDS011;23046;50.112;8.952;2023-07-22T00:08:38;2.40;;;1.00;;
37151;SDS011;23046;50.112;8.952;2023-07-22T00:08:49;2.60;;;1.10;;
37151;SDS011;23046;50.112;8.952;2023-07-22T00:08:59;1.57;;;1.00;;
37151;SDS011;23046;50.112;8.952;2023-07-22T00:09:09;0.93;;;0.83;;
37151;SDS011;23046;50.112;8.952;2023-07-22T00:09:20;0.73;;;0.73;;
37151;SDS011;23046;50.112;8.952;2023-07-22T00:09:32;0.87;;;0.87;;
37151;SDS011;23046;50.112;8.952;2023-07-22T00:09:43;1.00;;;1.00;;
37151;SDS011;23046;50.112;8.952;2023-07-22T00:09:53;1.10;;;1.00;;
37151;SDS011;23046;50.112;8.952;2023-07-22T00:10:04;1.05;;;0.90;;
37151;SDS011;23046;50.112;8.952;2023-07-22T00:10:15;1.17;;;0.98;;
37151;SDS011;23046;50.112;8.952;2023-07-22T00:10:25;0.90;;;0.90;;
37151;SDS011;23046;50.112;8.952;2023-07-22T00:10:36;0.97;;;0.97;;
37151;SDS011;23046;50.112;8.952;2023-07-22T00:10:50;0.90;;;0.90;;
37151;SDS011;23046;50.112;8.952;2023-07-22T00:11:00;0.80;;;0.80;;
37151;SDS011;23046;50.112;8.952;2023-07-22T00:11:10;0.70;;;0.70;;
37151;SDS011;23046;50.112;8.952;2023-07-22T00:11:20;0.80;;;0.80;;
37151;SDS011;23046;50.112;8.952;2023-07-22T00:11:30;0.90;;;0.90;;
37151;SDS011;23046;50.112;8.952;2023-07-22T00:11:41;1.03;;;1.03;;
37151;SDS011;23046;50.112;8.952;2023-07-22T00:11:51;1.02;;;1.02;;
37151;SDS011;23046;50.112;8.952;2023-07-22T00:12:01;1.07;;;1.00;;
37151;SDS011;23046;50.112;8.952;2023-07-22T00:12:11;1.03;;;1.00;;
37151;SDS011;23046;50.112;8.952;2023-07-22T00:12:22;1.10;;;1.00;;
37151;SDS011;23046;50.112;8.952;2023-07-22T00:12:35;1.05;;;1.00;;
37151;SDS011;23046;50.112;8.952;2023-07-22T00:12:45;1.23;;;0.93;;
37151;SDS011;23046;50.112;8.952;2023-07-22T00:12:56;1.43;;;0.93;;
37151;SDS011;23046;50.112;8.952;2023-07-22T00:13:06;1.30;;;0.88;;
37151;SDS011;23046;50.112;8.952;2023-07-22T00:13:17;1.00;;;0.90;;
37151;SDS011;23046;50.112;8.952;2023-07-22T00:13:27;0.87;;;0.87;;
37151;SDS011;23046;50.112;8.952;2023-07-22T00:13:37;0.90;;;0.90;;
37151;SDS011;23046;50.112;8.952;2023-07-22T00:13:48;0.90;;;0.90;;
37151;SDS011;23046;50.112;8.952;2023-07-22T00:13:58;0.90;;;0.90;;
37151;SDS011;23046;50.112;8.952;2023-07-22T00:14:09;0.90;;;0.90;;
37151;SDS011;23046;50.112;8.952;2023-07-22T00:14:19;0.90;;;0.90;;
37151;SDS011;23046;50.112;8.952;2023-07-22T00:14:29;0.90;;;0.90;;
37151;SDS011;23046;50.112;8.952;2023-07-22T00:14:41;0.90;;;0.90;;
37151;SDS011;23046;50.112;8.952;2023-07-22T00:14:51;0.95;;;0.95;;
37151;SDS011;23046;50.112;8.952;2023-07-22T00:15:02;1.03;;;0.97;;
37151;SDS011;23046;50.112;8.952;2023-07-22T00:15:12;1.10;;;1.00;;
37151;SDS011;23046;50.112;8.952;2023-07-22T00:15:22;0.90;;;0.90;;
37151;SDS011;23046;50.112;8.952;2023-07-22T00:15:34;0.85;;;0.85;;
37151;SDS011;23046;50.112;8.952;2023-07-22T00:15:44;0.90;;;0.90;;
37151;SDS011;23046;50.112;8.952;2023-07-22T00:15:55;0.93;;;0.93;;
37151;SDS011;23046;50.112;8.952;2023-07-22T00:16:05;1.45;;;0.95;;
37151;SDS011;23046;50.112;8.952;2023-07-22T00:16:17;1.48;;;0.98;;
37151;SDS011;23046;50.112;8.952;2023-07-22T00:16:28;1.13;;;0.90;;
37151;SDS011;23046;50.112;8.952;2023-07-22T00:16:39;1.52;;;1.10;;
37151;SDS011;23046;50.112;8.952;2023-07-22T00:16:49;1.40;;;1.00;;
37151;SDS011;23046;50.112;8.952;2023-07-22T00:16:59;1.23;;;1.10;;
37151;SDS011;23046;50.112;8.952;2023-07-22T00:17:10;1.60;;;1.10;;
37151;SDS011;23046;50.112;8.952;2023-07-22T00:17:20;1.90;;;1.07;;
37151;SDS011;23046;50.112;8.952;2023-07-22T00:17:31;1.73;;;0.98;;
37151;SDS011;23046;50.112;8.952;2023-07-22T00:17:41;1.20;;;0.83;;
37151;SDS011;23046;50.112;8.952;2023-07-22T00:17:51;1.13;;;0.87;;
37151;SDS011;23046;50.112;8.952;2023-07-22T00:18:01;1.15;;;0.98;;
37151;SDS011;23046;50.112;8.952;2023-07-22T00:18:12;1.10;;;1.00;;
37151;SDS011;23046;50.112;8.952;2023-07-22T00:18:22;1.10;;;1.00;;
37151;SDS011;23046;50.112;8.952;2023-07-22T00:18:33;1.00;;;0.90;;
37151;SDS011;23046;50.112;8.952;2023-07-22T00:18:44;0.90;;;0.90;;
37151;SDS011;23046;50.112;8.952;2023-07-22T00:18:54;0.90;;;0.90;;
37151;SDS011;23046;50.112;8.952;2023-07-22T00:19:04;0.90;;;0.90;;
37151;SDS011;23046;50.112;8.952;2023-07-22T00:19:14;0.87;;;0.87;;
37151;SDS011;23046;50.112;8.952;2023-07-22T00:19:24;0.93;;;0.82;;
37151;SDS011;23046;50.112;8.952;2023-07-22T00:19:34;0.90;;;0.90;;
37151;SDS011;23046;50.112;8.952;2023-07-22T00:19:45;0.90;;;0.90;;
37151;SDS011;23046;50.112;8.952;2023-07-22T00:19:55;0.97;;;0.97;;
37151;SDS011;23046;50.112;8.952;2023-07-22T00:20:05;1.10;;;1.00;;
37151;SDS011;23046;50.112;8.952;2023-07-22T00:20:19;1.10;;;1.00;;
37151;SDS011;23046;50.112;8.952;2023-07-22T00:20:30;1.27;;;0.90;;
37151;SDS011;23046;50.112;8.952;2023-07-22T00:20:40;1.30;;;0.90;;
37151;SDS011;23046;50.112;8.952;2023-07-22T00:20:50;1.43;;;1.00;;
37151;SDS011;23046;50.112;8.952;2023-07-22T00:21:00;1.20;;;1.00;;
37151;SDS011;23046;50.112;8.952;2023-07-22T00:21:10;1.42;;;1.00;;
37151;SDS011;23046;50.112;8.952;2023-07-22T00:21:21;1.33;;;0.93;;
37151;SDS011;23046;50.112;8.952;2023-07-22T00:21:31;1.40;;;0.83;;
37151;SDS011;23046;50.112;8.952;2023-07-22T00:21:41;1.07;;;0.83;;
37151;SDS011;23046;50.112;8.952;2023-07-22T00:21:51;1.07;;;0.90;;
37151;SDS011;23046;50.112;8.952;2023-07-22T00:22:02;1.20;;;1.10;;
37151;SDS011;23046;50.112;8.952;2023-07-22T00:22:12;1.20;;;1.10;;
37151;SDS011;23046;50.112;8.952;2023-07-22T00:22:22;1.27;;;1.17;;
37151;SDS011;23046;50.112;8.952;2023-07-22T00:22:32;1.10;;;1.10;;
37151;SDS011;23046;50.112;8.952;2023-07-22T00:22:43;1.00;;;0.98;;
37151;SDS011;23046;50.112;8.952;2023-07-22T00:22:53;2.50;;;0.90;;
37151;SDS011;23046;50.112;8.952;2023-07-22T00:23:03;2.60;;;0.90;;
37151;SDS011;23046;50.112;8.952;2023-07-22T00:23:13;2.57;;;0.90;;
37151;SDS011;23046;50.112;8.952;2023-07-22T00:23:25;0.82;;;0.82;;
37151;SDS011;23046;50.112;8.952;2023-07-22T00:23:35;0.80;;;0.80;;
37151;SDS011;23046;50.112;8.952;2023-07-22T00:23:46;0.90;;;0.90;;
37151;SDS011;23046;50.112;8.952;2023-07-22T00:23:56;0.80;;;0.80;;
37151;SDS011;23046;50.112;8.952;2023-07-22T00:24:06;0.80;;;0.80;;
37151;SDS011;23046;50.112;8.952;2023-07-22T00:24:16;0.90;;;0.90;;
37151;SDS011;23046;50.112;8.952;2023-07-22T00:24:26;1.17;;;1.00;;
37151;SDS011;23046;50.112;8.952;2023-07-22T00:24:37;1.53;;;1.00;;
37151;SDS011;23046;50.112;8.952;2023-07-22T00:24:47;1.63;;;0.95;;
37151;SDS011;23046;50.112;8.952;2023-07-22T00:24:57;1.40;;;0.90;;
37151;SDS011;23046;50.112;8.952;2023-07-22T00:25:10;1.08;;;0.98;;
37151;SDS011;23046;50.112;8.952;2023-07-22T00:25:21;1.00;;;0.90;;
37151;SDS011;23046;50.112;8.952;2023-07-22T00:25:32;0.88;;;0.88;;
37151;SDS011;23046;50.112;8.952;2023-07-22T00:25:42;0.90;;;0.90;;
37151;SDS011;23046;50.112;8.952;2023-07-22T00:25:53;1.00;;;0.90;;
37151;SDS011;23046;50.112;8.952;2023-07-22T00:26:03;1.13;;;1.03;;
37151;SDS011;23046;50.112;8.952;2023-07-22T00:26:13;1.13;;;0.93;;
37151;SDS011;23046;50.112;8.952;2023-07-22T00:26:23;1.10;;;1.00;;
37151;SDS011;23046;50.112;8.952;2023-07-22T00:26:34;0.90;;;0.90;;
37151;SDS011;23046;50.112;8.952;2023-07-22T00:26:44;0.70;;;0.70;;
37151;SDS011;23046;50.112;8.952;2023-07-22T00:26:54;0.70;;;0.70;;
37151;SDS011;23046;50.112;8.952;2023-07-22T00:27:04;0.70;;;0.70;;
37151;SDS011;23046;50.112;8.952;2023-07-22T00:27:16;0.80;;;0.80;;
37151;SDS011;23046;50.112;8.952;2023-07-22T00:27:26;0.85;;;0.70;;
37151;SDS011;23046;50.112;8.952;2023-07-22T00:27:39;1.00;;;0.80;;
37151;SDS011;23046;50.112;8.952;2023-07-22T00:27:50;1.50;;;0.88;;
37151;SDS011;23046;50.112;8.952;2023-07-22T00:28:00;1.30;;;0.90;;
37151;SDS011;23046;50.112;8.952;2023-07-22T00:28:10;0.83;;;0.83;;
37151;SDS011;23046;50.112;8.952;2023-07-22T00:28:21;1.00;;;0.90;;
37151;SDS011;23046;50.112;8.952;2023-07-22T00:28:31;1.00;;;0.90;;
37151;SDS011;23046;50.112;8.952;2023-07-22T00:28:41;0.90;;;0.90;;
37151;SDS011;23046;50.112;8.952;2023-07-22T00:28:53;0.90;;;0.90;;
37151;SDS011;23046;50.112;8.952;2023-07-22T00:29:03;1.17;;;1.00;;
37151;SDS011;23046;50.112;8.952;2023-07-22T00:29:15;1.60;;;1.13;;
37151;SDS011;23046;50.112;8.952;2023-07-22T00:29:25;1.60;;;1.10;;
37151;SDS011;23046;50.112;8.952;2023-07-22T00:29:36;1.10;;;1.00;;
37151;SDS011;23046;50.112;8.952;2023-07-22T00:29:46;0.90;;;0.90;;
37151;SDS011;23046;50.112;8.952;2023-07-22T00:29:56;1.00;;;0.90;;
37151;SDS011;23046;50.112;8.952;2023-07-22T00:30:06;1.40;;;1.00;;
37151;SDS011;23046;50.112;8.952;2023-07-22T00:30:17;1.30;;;0.90;;
37151;SDS011;23046;50.112;8.952;2023-07-22T00:30:28;1.05;;;0.90;;
37151;SDS011;23046;50.112;8.952;2023-07-22T00:30:38;1.00;;;1.00;;
37151;SDS011;23046;50.112;8.952;2023-07-22T00:30:48;1.02;;;1.02;;
37151;SDS011;23046;50.112;8.952;2023-07-22T00:30:59;0.93;;;0.93;;
37151;SDS011;23046;50.112;8.952;2023-07-22T00:31:12;0.95;;;0.95;;
37151;SDS011;23046;50.112;8.952;2023-07-22T00:31:23;0.90;;;0.90;;
37151;SDS011;23046;50.112;8.952;2023-07-22T00:31:33;1.03;;;0.97;;
37151;SDS011;23046;50.112;8.952;2023-07-22T00:31:43;0.90;;;0.90;;
37151;SDS011;23046;50.112;8.952;2023-07-22T00:31:54;0.90;;;0.90;;
37151;SDS011;23046;50.112;8.952;2023-07-22T00:32:04;0.93;;;0.93;;
37151;SDS011;23046;50.112;8.952;2023-07-22T00:32:17;1.00;;;1.00;;
37151;SDS011;23046;50.112;8.952;2023-07-22T00:32:27;1.00;;;1.00;;
37151;SDS011;23046;50.112;8.952;2023-07-22T00:32:37;0.97;;;0.97;;
37151;SDS011;23046;50.112;8.952;2023-07-22T00:32:47;0.98;;;0.98;;
37151;SDS011;23046;50.112;8.952;2023-07-22T00:32:58;1.00;;;1.00;;
37151;SDS011;23046;50.112;8.952;2023-07-22T00:33:08;1.33;;;1.10;;
37151;SDS011;23046;50.112;8.952;2023-07-22T00:33:18;1.40;;;1.20;;
37151;SDS011;23046;50.112;8.952;2023-07-22T00:33:29;1.33;;;1.10;;
37151;SDS011;23046;50.112;8.952;2023-07-22T00:33:39;1.13;;;1.03;;
37151;SDS011;23046;50.112;8.952;2023-07-22T00:33:49;1.30;;;1.10;;
37151;SDS011;23046;50.112;8.952;2023-07-22T00:33:59;1.20;;;1.10;;
37151;SDS011;23046;50.112;8.952;2023-07-22T00:34:10;1.20;;;1.05;;
37151;SDS011;23046;50.112;8.952;2023-07-22T00:34:21;0.93;;;0.93;;
37151;SDS011;23046;50.112;8.952;2023-07-22T00:34:33;0.85;;;0.82;;
37151;SDS011;23046;50.112;8.952;2023-07-22T00:34:43;0.80;;;0.80;;
37151;SDS011;23046;50.112;8.952;2023-07-22T00:34:53;0.73;;;0.73;;
37151;SDS011;23046;50.112;8.952;2023-07-22T00:35:04;0.90;;;0.90;;
37151;SDS011;23046;50.112;8.952;2023-07-22T00:35:15;1.02;;;0.98;;
37151;SDS011;23046;50.112;8.952;2023-07-22T00:35:25;1.13;;;1.00;;
37151;SDS011;23046;50.112;8.952;2023-07-22T00:35:35;1.00;;;0.90;;
37151;SDS011;23046;50.112;8.952;2023-07-22T00:35:48;0.93;;;0.75;;
37151;SDS011;23046;50.112;8.952;2023-07-22T00:36:00;1.00;;;0.80;;
37151;SDS011;23046;50.112;8.952;2023-07-22T00:36:10;0.80;;;0.80;;
37151;SDS011;23046;50.112;8.952;2023-07-22T00:36:21;0.98;;;0.90;;
37151;SDS011;23046;50.112;8.952;2023-07-22T00:36:31;0.90;;;0.90;;
37151;SDS011;23046;50.112;8.952;2023-07-22T00:36:41;0.80;;;0.80;;
37151;SDS011;23046;50.112;8.952;2023-07-22T00:36:52;1.05;;;0.95;;
37151;SDS011;23046;50.112;8.952;2023-07-22T00:37:02;1.13;;;1.00;;
37151;SDS011;23046;50.112;8.952;2023-07-22T00:37:12;1.27;;;0.97;;
37151;SDS011;23046;50.112;8.952;2023-07-22T00:37:23;0.83;;;0.83;;
37151;SDS011;23046;50.112;8.952;2023-07-22T00:37:33;0.82;;;0.82;;
37151;SDS011;23046;50.112;8.952;2023-07-22T00:37:43;1.00;;;1.00;;
37151;SDS011;23046;50.112;8.952;2023-07-22T00:37:53;1.30;;;1.00;;
37151;SDS011;23046;50.112;8.952;2023-07-22T00:38:03;1.20;;;1.00;;
37151;SDS011;23046;50.112;8.952;2023-07-22T00:38:14;1.10;;;0.95;;
37151;SDS011;23046;50.112;8.952;2023-07-22T00:38:24;1.07;;;1.00;;
37151;SDS011;23046;50.112;8.952;2023-07-22T00:38:34;1.03;;;1.03;;
37151;SDS011;23046;50.112;8.952;2023-07-22T00:38:44;0.90;;;0.90;;
37151;SDS011;23046;50.112;8.952;2023-07-22T00:38:55;0.97;;;0.97;;
37151;SDS011;23046;50.112;8.952;2023-07-22T00:39:05;0.90;;;0.90;;
37151;SDS011;23046;50.112;8.952;2023-07-22T00:39:15;0.90;;;0.90;;
37151;SDS011;23046;50.112;8.952;2023-07-22T00:39:25;1.00;;;0.90;;
37151;SDS011;23046;50.112;8.952;2023-07-22T00:39:36;0.90;;;0.90;;
37151;SDS011;23046;50.112;8.952;2023-07-22T00:39:46;1.10;;;1.00;;
37151;SDS011;23046;50.112;8.952;2023-07-22T00:39:56;0.80;;;0.80;;
37151;SDS011;23046;50.112;8.952;2023-07-22T00:40:06;0.70;;;0.70;;
37151;SDS011;23046;50.112;8.952;2023-07-22T00:40:22;0.73;;;0.73;;
37151;SDS011;23046;50.112;8.952;2023-07-22T00:40:32;0.95;;;0.95;;
37151;SDS011;23046;50.112;8.952;2023-07-22T00:40:43;1.20;;;1.10;;
37151;SDS011;23046;50.112;8.952;2023-07-22T00:40:53;1.17;;;1.10;;
37151;SDS011;23046;50.112;8.952;2023-07-22T00:41:04;1.20;;;1.10;;
37151;SDS011;23046;50.112;8.952;2023-07-22T00:41:14;1.10;;;1.08;;
37151;SDS011;23046;50.112;8.952;2023-07-22T00:41:25;1.10;;;1.00;;
37151;SDS011;23046;50.112;8.952;2023-07-22T00:41:35;0.90;;;0.90;;
37151;SDS011;23046;50.112;8.952;2023-07-22T00:41:46;0.70;;;0.70;;
37151;SDS011;23046;50.112;8.952;2023-07-22T00:41:56;0.80;;;0.80;;
37151;SDS011;23046;50.112;8.952;2023-07-22T00:42:06;0.90;;;0.80;;
37151;SDS011;23046;50.112;8.952;2023-07-22T00:42:18;1.05;;;0.90;;
37151;SDS011;23046;50.112;8.952;2023-07-22T00:42:28;0.90;;;0.90;;
37151;SDS011;23046;50.112;8.952;2023-07-22T00:42:38;1.00;;;1.00;;
37151;SDS011;23046;50.112;8.952;2023-07-22T00:42:49;1.00;;;1.00;;
37151;SDS011;23046;50.112;8.952;2023-07-22T00:42:59;1.03;;;1.00;;
37151;SDS011;23046;50.112;8.952;2023-07-22T00:43:09;1.00;;;0.90;;
37151;SDS011;23046;50.112;8.952;2023-07-22T00:43:20;0.80;;;0.80;;
37151;SDS011;23046;50.112;8.952;2023-07-22T00:43:30;0.80;;;0.80;;
37151;SDS011;23046;50.112;8.952;2023-07-22T00:43:40;0.90;;;0.90;;
37151;SDS011;23046;50.112;8.952;2023-07-22T00:43:50;1.00;;;0.90;;
37151;SDS011;23046;50.112;8.952;2023-07-22T00:44:01;1.10;;;0.80;;
37151;SDS011;23046;50.112;8.952;2023-07-22T00:44:12;0.90;;;0.80;;
37151;SDS011;23046;50.112;8.952;2023-07-22T00:44:22;1.10;;;0.88;;
37151;SDS011;23046;50.112;8.952;2023-07-22T00:44:33;0.97;;;0.90;;
37151;SDS011;23046;50.112;8.952;2023-07-22T00:44:43;0.97;;;0.93;;
37151;SDS011;23046;50.112;8.952;2023-07-22T00:44:53;1.10;;;1.00;;
37151;SDS011;23046;50.112;8.952;2023-07-22T00:45:03;1.10;;;1.00;;
37151;SDS011;23046;50.112;8.952;2023-07-22T00:45:14;1.10;;;1.00;;
37151;SDS011;23046;50.112;8.952;2023-07-22T00:45:24;0.87;;;0.87;;
37151;SDS011;23046;50.112;8.952;2023-07-22T00:45:34;0.80;;;0.80;;
37151;SDS011;23046;50.112;8.952;2023-07-22T00:45:44;0.70;;;0.70;;
37151;SDS011;23046;50.112;8.952;2023-07-22T00:45:54;0.80;;;0.80;;
37151;SDS011;23046;50.112;8.952;2023-07-22T00:46:05;0.80;;;0.80;;
37151;SDS011;23046;50.112;8.952;2023-07-22T00:46:15;1.00;;;0.90;;
37151;SDS011;23046;50.112;8.952;2023-07-22T00:46:25;0.97;;;0.90;;
37151;SDS011;23046;50.112;8.952;2023-07-22T00:46:35;0.90;;;0.90;;
37151;SDS011;23046;50.112;8.952;2023-07-22T00:46:46;0.80;;;0.80;;
37151;SDS011;23046;50.112;8.952;2023-07-22T00:46:56;0.90;;;0.90;;
37151;SDS011;23046;50.112;8.952;2023-07-22T00:47:07;0.80;;;0.80;;
37151;SDS011;23046;50.112;8.952;2023-07-22T00:47:18;0.90;;;0.90;;
37151;SDS011;23046;50.112;8.952;2023-07-22T00:47:29;1.10;;;0.82;;
37151;SDS011;23046;50.112;8.952;2023-07-22T00:47:40;1.08;;;0.90;;
37151;SDS011;23046;50.112;8.952;2023-07-22T00:47:50;1.03;;;0.90;;
37151;SDS011;23046;50.112;8.952;2023-07-22T00:48:01;1.00;;;0.90;;
37151;SDS011;23046;50.112;8.952;2023-07-22T00:48:12;0.80;;;0.80;;
37151;SDS011;23046;50.112;8.952;2023-07-22T00:48:23;0.90;;;0.90;;
37151;SDS011;23046;50.112;8.952;2023-07-22T00:48:33;0.83;;;0.83;;
37151;SDS011;23046;50.112;8.952;2023-07-22T00:48:44;0.80;;;0.80;;
37151;SDS011;23046;50.112;8.952;2023-07-22T00:48:54;0.90;;;0.90;;
37151;SDS011;23046;50.112;8.952;2023-07-22T00:49:08;0.90;;;0.90;;
37151;SDS011;23046;50.112;8.952;2023-07-22T00:49:18;1.15;;;1.05;;
37151;SDS011;23046;50.112;8.952;2023-07-22T00:49:28;1.10;;;1.00;;
37151;SDS011;23046;50.112;8.952;2023-07-22T00:49:39;1.63;;;1.00;;
37151;SDS011;23046;50.112;8.952;2023-07-22T00:49:50;1.23;;;0.88;;
37151;SDS011;23046;50.112;8.952;2023-07-22T00:50:04;0.97;;;0.83;;
37151;SDS011;23046;50.112;8.952;2023-07-22T00:50:16;1.23;;;0.80;;
37151;SDS011;23046;50.112;8.952;2023-07-22T00:50:26;1.50;;;0.90;;
37151;SDS011;23046;50.112;8.952;2023-07-22T00:50:36;1.07;;;0.97;;
37151;SDS011;23046;50.112;8.952;2023-07-22T00:50:48;0.93;;;0.93;;
37151;SDS011;23046;50.112;8.952;2023-07-22T00:50:59;1.05;;;1.00;;
37151;SDS011;23046;50.112;8.952;2023-07-22T00:51:09;1.10;;;1.00;;
37151;SDS011;23046;50.112;8.952;2023-07-22T00:51:19;1.10;;;1.00;;
37151;SDS011;23046;50.112;8.952;2023-07-22T00:51:30;1.30;;;1.02;;
37151;SDS011;23046;50.112;8.952;2023-07-22T00:51:41;1.23;;;1.10;;
37151;SDS011;23046;50.112;8.952;2023-07-22T00:51:51;1.13;;;1.02;;
37151;SDS011;23046;50.112;8.952;2023-07-22T00:52:02;1.00;;;1.00;;
37151;SDS011;23046;50.112;8.952;2023-07-22T00:52:15;1.00;;;1.00;;
37151;SDS011;23046;50.112;8.952;2023-07-22T00:52:26;1.10;;;1.00;;
37151;SDS011;23046;50.112;8.952;2023-07-22T00:52:39;1.17;;;1.07;;
37151;SDS011;23046;50.112;8.952;2023-07-22T00:52:50;1.17;;;1.08;;
37151;SDS011;23046;50.112;8.952;2023-07-22T00:53:00;1.33;;;1.05;;
37151;SDS011;23046;50.112;8.952;2023-07-22T00:53:10;1.87;;;1.10;;
37151;SDS011;23046;50.112;8.952;2023-07-22T00:53:21;1.70;;;1.10;;
37151;SDS011;23046;50.112;8.952;2023-07-22T00:53:31;1.13;;;0.95;;
37151;SDS011;23046;50.112;8.952;2023-07-22T00:53:41;0.90;;;0.90;;
37151;SDS011;23046;50.112;8.952;2023-07-22T00:53:51;0.90;;;0.90;;
37151;SDS011;23046;50.112;8.952;2023-07-22T00:54:02;1.00;;;1.00;;
37151;SDS011;23046;50.112;8.952;2023-07-22T00:54:13;1.00;;;0.90;;
37151;SDS011;23046;50.112;8.952;2023-07-22T00:54:24;1.00;;;0.90;;
37151;SDS011;23046;50.112;8.952;2023-07-22T00:54:34;1.00;;;0.90;;
37151;SDS011;23046;50.112;8.952;2023-07-22T00:54:44;0.95;;;0.95;;
37151;SDS011;23046;50.112;8.952;2023-07-22T00:54:55;1.00;;;1.00;;
37151;SDS011;23046;50.112;8.952;2023-07-22T00:55:05;1.17;;;1.00;;
37151;SDS011;23046;50.112;8.952;2023-07-22T00:55:15;2.00;;;1.00;;
37151;SDS011;23046;50.112;8.952;2023-07-22T00:55:26;2.53;;;1.00;;
37151;SDS011;23046;50.112;8.952;2023-07-22T00:55:36;1.90;;;0.90;;
37151;SDS011;23046;50.112;8.952;2023-07-22T00:55:48;0.90;;;0.90;;
37151;SDS011;23046;50.112;8.952;2023-07-22T00:55:59;0.93;;;0.90;;
37151;SDS011;23046;50.112;8.952;2023-07-22T00:56:09;0.90;;;0.90;;
37151;SDS011;23046;50.112;8.952;2023-07-22T00:56:19;0.80;;;0.80;;
37151;SDS011;23046;50.112;8.952;2023-07-22T00:56:30;0.90;;;0.90;;
37151;SDS011;23046;50.112;8.952;2023-07-22T00:56:41;0.85;;;0.85;;
37151;SDS011;23046;50.112;8.952;2023-07-22T00:56:51;0.98;;;0.98;;
37151;SDS011;23046;50.112;8.952;2023-07-22T00:57:03;0.82;;;0.82;;
37151;SDS011;23046;50.112;8.952;2023-07-22T00:57:13;1.00;;;0.90;;
37151;SDS011;23046;50.112;8.952;2023-07-22T00:57:24;1.17;;;1.08;;
37151;SDS011;23046;50.112;8.952;2023-07-22T00:57:34;1.20;;;1.10;;
37151;SDS011;23046;50.112;8.952;2023-07-22T00:57:44;0.95;;;0.95;;
37151;SDS011;23046;50.112;8.952;2023-07-22T00:57:55;0.90;;;0.90;;
37151;SDS011;23046;50.112;8.952;2023-07-22T00:58:05;0.93;;;0.90;;
37151;SDS011;23046;50.112;8.952;2023-07-22T00:58:16;1.27;;;1.00;;
37151;SDS011;23046;50.112;8.952;2023-07-22T00:58:26;1.10;;;1.00;;
37151;SDS011;23046;50.112;8.952;2023-07-22T00:58:36;1.13;;;1.00;;
37151;SDS011;23046;50.112;8.952;2023-07-22T00:58:47;1.20;;;0.90;;
37151;SDS011;23046;50.112;8.952;2023-07-22T00:58:57;1.33;;;0.87;;
37151;SDS011;23046;50.112;8.952;2023-07-22T00:59:07;1.37;;;0.87;;
37151;SDS011;23046;50.112;8.952;2023-07-22T00:59:17;1.00;;;0.90;;
37151;SDS011;23046;50.112;8.952;2023-07-22T00:59:28;1.00;;;0.90;;
37151;SDS011;23046;50.112;8.952;2023-07-22T00:59:39;0.87;;;0.80;;
37151;SDS011;23046;50.112;8.952;2023-07-22T00:59:49;1.17;;;0.90;;
37151;SDS011;23046;50.112;8.952;2023-07-22T00:59:59;1.00;;;0.90;;
37151;SDS011;23046;50.112;8.952;2023-07-22T01:00:09;0.93;;;0.90;;
37151;SDS011;23046;50.112;8.952;2023-07-22T01:00:22;0.73;;;0.73;;
37151;SDS011;23046;50.112;8.952;2023-07-22T01:00:32;0.80;;;0.80;;
37151;SDS011;23046;50.112;8.952;2023-07-22T01:00:42;1.00;;;1.00;;
37151;SDS011;23046;50.112;8.952;2023-07-22T01:00:52;1.70;;;1.03;;
37151;SDS011;23046;50.112;8.952;2023-07-22T01:01:03;1.65;;;1.00;;
37151;SDS011;23046;50.112;8.952;2023-07-22T01:01:13;1.77;;;0.93;;
37151;SDS011;23046;50.112;8.952;2023-07-22T01:01:23;0.93;;;0.90;;
37151;SDS011;23046;50.112;8.952;2023-07-22T01:01:33;1.20;;;0.90;;
37151;SDS011;23046;50.112;8.952;2023-07-22T01:01:43;1.40;;;0.97;;
37151;SDS011;23046;50.112;8.952;2023-07-22T01:01:54;1.40;;;1.10;;
37151;SDS011;23046;50.112;8.952;2023-07-22T01:02:04;1.20;;;1.10;;
37151;SDS011;23046;50.112;8.952;2023-07-22T01:02:14;1.13;;;1.00;;
37151;SDS011;23046;50.112;8.952;2023-07-22T01:02:24;1.17;;;1.00;;
37151;SDS011;23046;50.112;8.952;2023-07-22T01:02:35;1.38;;;1.02;;
37151;SDS011;23046;50.112;8.952;2023-07-22T01:02:45;1.47;;;1.10;;
37151;SDS011;23046;50.112;8.952;2023-07-22T01:02:56;1.30;;;1.00;;
37151;SDS011;23046;50.112;8.952;2023-07-22T01:03:06;1.30;;;1.05;;
37151;SDS011;23046;50.112;8.952;2023-07-22T01:03:17;1.10;;;1.00;;
37151;SDS011;23046;50.112;8.952;2023-07-22T01:03:29;1.10;;;1.00;;
37151;SDS011;23046;50.112;8.952;2023-07-22T01:03:39;1.50;;;1.00;;
37151;SDS011;23046;50.112;8.952;2023-07-22T01:03:49;1.60;;;0.93;;